createdAt,value
2018-11-06T00:02:22.070Z,99217.12
2018-11-06T00:04:56.287Z,99215.20
2018-11-06T00:07:25.258Z,99210.78
2018-11-06T00:09:54.240Z,99202.55
2018-11-06T00:12:23.251Z,99208.48
2018-11-06T00:14:52.246Z,99195.11
2018-11-06T00:17:21.210Z,99202.98
2018-11-06T00:19:50.326Z,99205.50
2018-11-06T00:22:19.337Z,99207.13
2018-11-06T00:24:48.334Z,99200.73
2018-11-06T00:27:17.310Z,99201.11
2018-11-06T00:29:46.445Z,99199.96
2018-11-06T00:32:15.414Z,99206.95
2018-11-06T00:34:44.415Z,99205.39
2018-11-06T00:37:13.391Z,99199.66
2018-11-06T00:39:42.399Z,99194.72
2018-11-06T00:42:11.370Z,99192.34
2018-11-06T00:44:40.366Z,99200.53
2018-11-06T00:47:09.407Z,99204.27
2018-11-06T00:49:38.398Z,99208.41
2018-11-06T00:52:07.670Z,99223.91
2018-11-06T00:54:36.670Z,99214.81
2018-11-06T00:57:05.649Z,99222.17
2018-11-06T00:59:34.633Z,99218.34
2018-11-06T01:02:03.706Z,99214.54
2018-11-06T01:04:32.695Z,99206.41
2018-11-06T01:07:01.692Z,99203.80
2018-11-06T01:09:30.658Z,99203.89
2018-11-06T01:11:59.661Z,99198.59
2018-11-06T01:14:28.674Z,99198.73
2018-11-06T01:16:57.702Z,99193.64
2018-11-06T01:19:26.715Z,99191.31
2018-11-06T01:21:55.691Z,99191.40
2018-11-06T01:24:24.678Z,99200.05
2018-11-06T01:26:53.662Z,99207.25
2018-11-06T01:29:22.682Z,99213.29
2018-11-06T01:31:51.694Z,99204.21
2018-11-06T01:34:20.958Z,99198.10
2018-11-06T01:36:49.945Z,99201.72
2018-11-06T01:39:18.948Z,99197.89
2018-11-06T01:41:47.999Z,99199.09
2018-11-06T01:44:17.597Z,99191.02
2018-11-06T01:46:47.398Z,99189.11
2018-11-06T01:49:16.376Z,99184.47
2018-11-06T01:51:45.468Z,99180.86
2018-11-06T01:54:14.454Z,99173.33
2018-11-06T01:56:43.449Z,99170.33
2018-11-06T01:59:12.426Z,99179.06
2018-11-06T02:01:41.393Z,99191.38
2018-11-06T02:04:10.383Z,99184.09
2018-11-06T02:06:39.403Z,99182.23
2018-11-06T02:09:09.262Z,99181.61
2018-11-06T02:11:38.239Z,99177.48
2018-11-06T02:14:07.466Z,99174.78
2018-11-06T02:16:36.522Z,99185.61
2018-11-06T02:19:05.905Z,99191.43
2018-11-06T02:21:34.921Z,99194.01
2018-11-06T02:24:03.979Z,99194.63
2018-11-06T02:26:32.938Z,99205.53
2018-11-06T02:29:01.942Z,99205.12
2018-11-06T02:31:30.929Z,99214.44
2018-11-06T02:33:59.956Z,99215.32
2018-11-06T02:36:28.933Z,99223.02
2018-11-06T02:38:57.896Z,99224.95
2018-11-06T02:41:26.933Z,99230.44
2018-11-06T02:43:55.864Z,99228.89
2018-11-06T02:46:25.121Z,99227.32
2018-11-06T02:48:54.117Z,99226.20
2018-11-06T02:51:23.068Z,99213.04
2018-11-06T02:53:52.059Z,99212.71
2018-11-06T02:56:21.120Z,99208.37
2018-11-06T02:58:50.111Z,99202.44
2018-11-06T03:01:19.097Z,99206.73
2018-11-06T03:03:48.061Z,99197.11
2018-11-06T03:06:17.085Z,99199.69
2018-11-06T03:08:46.029Z,99198.79
2018-11-06T03:11:15.005Z,99204.50
2018-11-06T03:13:43.958Z,99213.89
2018-11-06T03:16:12.961Z,99220.36
2018-11-06T03:18:41.919Z,99228.11
2018-11-06T03:21:10.902Z,99236.77
2018-11-06T03:23:39.861Z,99229.81
2018-11-06T03:26:08.982Z,99230.85
2018-11-06T03:28:37.958Z,99215.20
2018-11-06T03:31:06.988Z,99206.84
2018-11-06T03:33:35.942Z,99199.09
2018-11-06T03:36:05.714Z,99191.09
2018-11-06T03:38:34.656Z,99191.36
2018-11-06T03:41:03.738Z,99192.86
2018-11-06T03:43:32.693Z,99198.02
2018-11-06T03:46:01.676Z,99202.88
2018-11-06T03:48:30.646Z,99204.00
2018-11-06T03:50:59.630Z,99193.02
2018-11-06T03:53:28.719Z,99186.66
2018-11-06T03:55:57.699Z,99186.16
2018-11-06T03:58:26.654Z,99189.48
2018-11-06T04:00:55.630Z,99189.64
2018-11-06T04:03:24.578Z,99198.80
2018-11-06T04:05:53.561Z,99206.68
2018-11-06T04:08:22.548Z,99213.75
2018-11-06T04:10:51.518Z,99224.07
2018-11-06T04:13:20.485Z,99219.52
2018-11-06T04:15:49.457Z,99209.09
2018-11-06T04:18:18.405Z,99202.73
2018-11-06T04:20:47.386Z,99196.62
2018-11-06T04:23:16.333Z,99197.73
2018-11-06T04:25:45.305Z,99202.84
2018-11-06T04:28:14.285Z,99212.75
2018-11-06T04:30:43.270Z,99204.53
2018-11-06T04:33:12.217Z,99189.72
2018-11-06T04:35:41.194Z,99182.61
2018-11-06T04:38:10.318Z,99179.23
2018-11-06T04:40:39.325Z,99185.35
2018-11-06T04:43:08.285Z,99185.84
2018-11-06T04:45:37.270Z,99177.00
2018-11-06T04:48:06.530Z,99179.07
2018-11-06T04:50:35.507Z,99187.47
2018-11-06T04:53:04.553Z,99184.47
2018-11-06T04:55:33.550Z,99183.69
2018-11-06T04:58:02.528Z,99174.50
2018-11-06T05:00:31.529Z,99170.42
2018-11-06T05:03:00.500Z,99161.72
2018-11-06T05:05:29.486Z,99155.73
2018-11-06T05:07:58.453Z,99149.28
2018-11-06T05:10:27.650Z,99147.42
2018-11-06T05:12:56.625Z,99141.84
2018-11-06T05:15:25.612Z,99145.13
2018-11-06T05:17:54.579Z,99141.88
2018-11-06T05:20:23.560Z,99150.48
2018-11-06T05:22:52.540Z,99148.48
2018-11-06T05:25:21.535Z,99144.44
2018-11-06T05:27:50.480Z,99146.11
2018-11-06T05:30:19.549Z,99148.63
2018-11-06T05:32:48.550Z,99150.03
2018-11-06T05:35:17.499Z,99159.66
2018-11-06T05:37:46.446Z,99159.50
2018-11-06T05:40:26.997Z,99169.58
2018-11-06T05:42:55.957Z,99169.13
2018-11-06T05:45:24.970Z,99177.41
2018-11-06T05:47:53.910Z,99166.52
2018-11-06T05:50:22.965Z,99164.94
2018-11-06T05:52:51.915Z,99164.27
2018-11-06T05:55:20.885Z,99157.49
2018-11-06T05:57:49.866Z,99157.19
2018-11-06T06:00:18.887Z,99161.06
2018-11-06T06:02:47.813Z,99162.91
2018-11-06T06:05:16.845Z,99178.50
2018-11-06T06:07:45.802Z,99191.10
2018-11-06T06:10:14.809Z,99191.52
2018-11-06T06:12:43.854Z,99197.35
2018-11-06T06:15:12.840Z,99202.85
2018-11-06T06:17:41.798Z,99206.55
2018-11-06T06:20:10.786Z,99209.13
2018-11-06T06:22:39.814Z,99206.42
2018-11-06T06:25:09.045Z,99201.10
2018-11-06T06:27:38.005Z,99202.14
2018-11-06T06:30:09.502Z,99191.06
2018-11-06T06:32:38.474Z,99186.08
2018-11-06T06:35:07.491Z,99179.95
2018-11-06T06:37:36.561Z,99186.66
2018-11-06T06:40:07.471Z,99183.66
2018-11-06T06:42:36.345Z,99192.53
2018-11-06T06:45:06.737Z,99196.06
2018-11-06T06:47:35.772Z,99193.94
2018-11-06T06:50:06.801Z,99185.28
2018-11-06T06:52:35.822Z,99181.41
2018-11-06T06:55:06.105Z,99177.37
2018-11-06T06:57:35.297Z,99168.64
2018-11-06T07:00:04.268Z,99165.31
2018-11-06T07:02:33.278Z,99163.23
2018-11-06T07:05:02.263Z,99166.12
2018-11-06T07:07:31.218Z,99157.17
2018-11-06T07:10:00.194Z,99150.44
2018-11-06T07:12:29.334Z,99147.13
2018-11-06T07:14:58.314Z,99143.94
2018-11-06T07:17:27.380Z,99145.13
2018-11-06T07:19:56.371Z,99141.48
2018-11-06T07:22:25.340Z,99140.31
2018-11-06T07:24:54.303Z,99147.35
2018-11-06T07:27:23.265Z,99147.84
2018-11-06T07:29:52.426Z,99149.45
2018-11-06T07:32:21.381Z,99165.80
2018-11-06T07:34:50.447Z,99170.41
2018-11-06T07:37:19.318Z,99163.06
2018-11-06T07:39:48.302Z,99175.27
2018-11-06T07:42:17.257Z,99179.63
2018-11-06T07:44:46.226Z,99200.69
2018-11-06T07:47:15.194Z,99192.52
2018-11-06T07:49:44.269Z,99205.31
2018-11-06T07:52:13.249Z,99193.78
2018-11-06T07:54:42.228Z,99204.88
2018-11-06T07:57:11.191Z,99209.27
2018-11-06T07:59:40.179Z,99217.18
2018-11-06T08:02:09.172Z,99221.70
2018-11-06T08:04:38.125Z,99223.42
2018-11-06T08:07:07.117Z,99221.76
2018-11-06T08:09:36.177Z,99217.18
2018-11-06T08:12:05.629Z,99212.97
2018-11-06T08:14:34.797Z,99205.12
2018-11-06T08:17:03.750Z,99205.52
2018-11-06T08:19:32.709Z,99197.25
2018-11-06T08:22:01.766Z,99199.03
2018-11-06T08:24:30.760Z,99189.41
2018-11-06T08:26:59.922Z,99189.90
2018-11-06T08:29:28.906Z,99194.88
2018-11-06T08:31:58.259Z,99199.70
2018-11-06T08:34:26.826Z,99210.26
2018-11-06T08:36:55.811Z,99205.86
2018-11-06T08:39:24.749Z,99215.17
2018-11-06T08:41:53.819Z,99207.85
2018-11-06T08:44:22.758Z,99215.13
2018-11-06T08:46:51.739Z,99226.25
2018-11-06T08:49:20.680Z,99230.23
2018-11-06T08:51:49.696Z,99229.00
2018-11-06T08:54:18.629Z,99230.17
2018-11-06T08:56:47.669Z,99225.66
2018-11-06T08:59:16.626Z,99233.14
2018-11-06T09:01:45.648Z,99224.63
2018-11-06T09:04:14.570Z,99224.09
2018-11-06T09:06:43.657Z,99219.90
2018-11-06T09:09:12.627Z,99225.66
2018-11-06T09:11:41.609Z,99224.00
2018-11-06T09:14:10.560Z,99217.39
2018-11-06T09:16:39.598Z,99222.52
2018-11-06T09:19:09.023Z,99222.80
2018-11-06T09:21:38.021Z,99222.56
2018-11-06T09:24:07.109Z,99224.34
2018-11-06T09:26:36.254Z,99223.27
2018-11-06T09:29:05.654Z,99219.56
2018-11-06T09:31:34.583Z,99216.66
2018-11-06T09:34:03.545Z,99211.04
2018-11-06T09:36:32.609Z,99205.71
2018-11-06T09:39:01.585Z,99205.16
2018-11-06T09:41:30.563Z,99195.74
2018-11-06T09:43:59.528Z,99189.83
2018-11-06T09:46:28.514Z,99189.73
2018-11-06T09:48:57.546Z,99183.52
2018-11-06T09:51:26.526Z,99172.67
2018-11-06T09:53:55.489Z,99169.85
2018-11-06T09:56:24.466Z,99164.33
2018-11-06T09:58:53.438Z,99158.09
2018-11-06T10:01:22.438Z,99157.39
2018-11-06T10:03:51.471Z,99145.52
2018-11-06T10:06:20.564Z,99144.80
2018-11-06T10:08:49.487Z,99136.54
2018-11-06T10:11:18.448Z,99138.89
2018-11-06T10:13:47.485Z,99136.53
2018-11-06T10:16:16.480Z,99143.38
2018-11-06T10:18:45.448Z,99138.87
2018-11-06T10:21:14.483Z,99135.34
2018-11-06T10:23:43.387Z,99132.14
2018-11-06T10:26:12.366Z,99136.79
2018-11-06T10:28:41.359Z,99137.66
2018-11-06T10:31:10.337Z,99140.75
2018-11-06T10:33:39.329Z,99138.89
2018-11-06T10:36:08.330Z,99136.08
2018-11-06T10:38:37.314Z,99124.74
2018-11-06T10:41:06.303Z,99120.75
2018-11-06T10:43:41.645Z,99116.86
2018-11-06T10:46:10.601Z,99121.46
2018-11-06T10:48:39.558Z,99098.59
2018-11-06T10:51:08.547Z,99099.64
2018-11-06T10:53:37.535Z,99100.38
2018-11-06T10:56:06.518Z,99105.28
2018-11-06T10:58:35.713Z,99098.70
2018-11-06T11:01:10.272Z,99101.37
2018-11-06T11:03:45.457Z,99100.90
2018-11-06T11:06:14.456Z,99094.28
2018-11-06T11:08:43.474Z,99081.14
2018-11-06T11:11:12.443Z,99079.51
2018-11-06T11:13:41.436Z,99067.62
2018-11-06T11:16:10.421Z,99062.70
2018-11-06T11:18:39.409Z,99063.83
2018-11-06T11:21:08.365Z,99059.33
2018-11-06T11:23:37.351Z,99054.30
2018-11-06T11:26:06.333Z,99052.72
2018-11-06T11:28:35.597Z,99047.09
2018-11-06T11:31:04.917Z,99043.58
2018-11-06T11:33:33.869Z,99048.34
2018-11-06T11:36:02.861Z,99041.36
2018-11-06T11:38:31.810Z,99031.23
2018-11-06T11:41:00.785Z,99032.08
2018-11-06T11:43:29.734Z,99031.19
2018-11-06T11:45:58.744Z,99031.91
2018-11-06T11:48:27.688Z,99035.31
2018-11-06T11:50:56.654Z,99049.13
2018-11-06T11:53:25.653Z,99037.59
2018-11-06T11:55:54.633Z,99048.70
2018-11-06T11:58:23.627Z,99047.64
2018-11-06T12:00:53.434Z,99032.87
2018-11-06T12:03:22.402Z,99032.37
2018-11-06T12:05:51.382Z,99024.13
2018-11-06T12:08:20.639Z,99027.67
2018-11-06T12:10:49.623Z,99031.09
2018-11-06T12:13:18.577Z,99030.17
2018-11-06T12:15:47.557Z,99030.93
2018-11-06T12:18:16.582Z,99040.66
2018-11-06T12:20:45.509Z,99040.75
2018-11-06T12:23:14.485Z,99044.51
2018-11-06T12:25:43.715Z,99043.69
2018-11-06T12:28:12.518Z,99031.91
2018-11-06T12:30:41.499Z,99035.98
2018-11-06T12:33:10.463Z,99032.55
2018-11-06T12:35:39.452Z,99027.44
2018-11-06T12:38:08.423Z,99018.40
2018-11-06T12:40:37.477Z,99016.61
2018-11-06T12:43:06.537Z,99008.44
2018-11-06T12:45:35.435Z,99004.81
2018-11-06T12:48:04.634Z,99001.86
2018-11-06T12:50:33.614Z,99000.77
2018-11-06T12:53:02.583Z,98989.70
2018-11-06T12:55:31.710Z,98986.67
2018-11-06T12:58:00.673Z,98982.21
2018-11-06T13:00:29.678Z,98984.30
2018-11-06T13:02:58.641Z,98991.41
2018-11-06T13:05:27.693Z,98981.28
2018-11-06T13:07:56.649Z,98983.09
2018-11-06T13:10:25.630Z,98989.73
2018-11-06T13:12:54.597Z,98982.38
2018-11-06T13:15:23.642Z,98981.83
2018-11-06T13:17:52.598Z,98981.83
2018-11-06T13:20:21.583Z,98981.79
2018-11-06T13:22:50.561Z,98977.64
2018-11-06T13:25:19.553Z,98978.11
2018-11-06T13:27:48.537Z,98976.41
2018-11-06T13:30:18.664Z,98978.91
2018-11-06T13:32:48.355Z,98987.87
2018-11-06T13:35:17.353Z,98990.35
2018-11-06T13:37:46.309Z,98993.30
2018-11-06T13:40:16.177Z,99002.53
2018-11-06T13:42:45.705Z,99002.14
2018-11-06T13:45:21.322Z,98994.66
2018-11-06T13:47:50.196Z,98990.93
2018-11-06T13:50:19.334Z,98993.44
2018-11-06T13:52:48.414Z,98997.97
2018-11-06T13:55:17.778Z,98987.09
2018-11-06T13:57:47.142Z,98979.27
2018-11-06T14:00:18.665Z,98983.87
2018-11-06T14:02:47.625Z,98988.44
2018-11-06T14:05:16.874Z,98990.98
2018-11-06T14:07:46.049Z,98985.09
2018-11-06T14:10:15.042Z,98969.14
2018-11-06T14:12:44.895Z,98980.59
2018-11-06T14:15:13.849Z,98976.80
2018-11-06T14:17:42.845Z,98982.83
2018-11-06T14:20:13.174Z,98982.75
2018-11-06T14:22:42.397Z,98988.22
2018-11-06T14:25:11.366Z,98997.59
2018-11-06T14:27:40.512Z,98994.94
2018-11-06T14:30:11.339Z,98996.78
2018-11-06T14:32:40.649Z,98994.66
2018-11-06T14:35:11.170Z,98990.38
2018-11-06T14:37:40.642Z,98986.98
2018-11-06T14:40:10.879Z,98988.05
2018-11-06T14:42:40.706Z,99004.67
2018-11-06T14:45:10.966Z,98998.61
2018-11-06T14:47:39.998Z,98983.61
2018-11-06T14:50:09.545Z,98988.61
2018-11-06T14:52:38.677Z,98987.23
2018-11-06T14:55:08.846Z,98991.41
2018-11-06T14:57:37.907Z,98984.31
2018-11-06T15:00:08.980Z,98991.36
2018-11-06T15:02:37.958Z,98995.58
2018-11-06T15:05:06.990Z,98991.20
2018-11-06T15:07:35.983Z,98988.25
2018-11-06T15:10:06.032Z,98989.53
2018-11-06T15:12:35.043Z,98988.86
2018-11-06T15:15:03.966Z,98976.49
2018-11-06T15:17:32.934Z,98982.70
2018-11-06T15:20:02.022Z,98988.69
2018-11-06T15:22:31.022Z,99002.02
2018-11-06T15:24:59.977Z,99022.11
2018-11-06T15:27:28.993Z,99013.97
2018-11-06T15:29:57.954Z,99006.83
2018-11-06T15:32:27.039Z,99004.94
2018-11-06T15:34:55.902Z,99010.37
2018-11-06T15:37:24.877Z,99017.45
2018-11-06T15:39:53.925Z,99019.28
2018-11-06T15:42:22.906Z,99030.77
2018-11-06T15:44:51.862Z,99033.05
2018-11-06T15:47:20.882Z,99034.92
2018-11-06T15:49:49.834Z,99047.91
2018-11-06T15:52:18.994Z,99061.04
2018-11-06T15:54:47.960Z,99064.16
2018-11-06T15:57:16.942Z,99081.11
2018-11-06T15:59:45.893Z,99097.05
2018-11-06T16:02:14.866Z,99114.91
2018-11-06T16:04:43.938Z,99121.75
2018-11-06T16:07:12.902Z,99128.53
2018-11-06T16:09:41.861Z,99136.04
2018-11-06T16:12:10.883Z,99150.15
2018-11-06T16:14:39.871Z,99156.55
2018-11-06T16:17:08.861Z,99170.77
2018-11-06T16:19:37.860Z,99175.88
2018-11-06T16:22:07.002Z,99173.89
2018-11-06T16:24:35.966Z,99180.64
2018-11-06T16:27:04.978Z,99187.02
2018-11-06T16:29:33.951Z,99196.19
2018-11-06T16:32:03.026Z,99198.27
2018-11-06T16:34:31.998Z,99219.48
2018-11-06T16:37:00.974Z,99225.91
2018-11-06T16:39:29.929Z,99226.33
2018-11-06T16:41:58.898Z,99226.21
2018-11-06T16:44:27.884Z,99225.33
2018-11-06T16:46:57.083Z,99237.55
2018-11-06T16:49:26.094Z,99230.70
2018-11-06T16:51:55.130Z,99225.41
2018-11-06T16:54:24.084Z,99234.49
2018-11-06T16:56:53.250Z,99244.30
2018-11-06T16:59:22.312Z,99251.48
2018-11-06T17:01:51.309Z,99249.71
2018-11-06T17:04:20.386Z,99253.82
2018-11-06T17:06:50.641Z,99264.43
2018-11-06T17:09:20.636Z,99268.38
2018-11-06T17:11:49.622Z,99271.69
2018-11-06T17:14:18.612Z,99281.27
2018-11-06T17:16:47.631Z,99275.81
2018-11-06T17:19:16.623Z,99281.77
2018-11-06T17:21:47.973Z,99279.81
2018-11-06T17:24:17.017Z,99288.42
2018-11-06T17:26:46.066Z,99287.66
2018-11-06T17:29:15.022Z,99286.44
2018-11-06T17:31:44.014Z,99283.87
2018-11-06T17:34:13.184Z,99276.83
2018-11-06T17:36:42.170Z,99281.47
2018-11-06T17:39:12.561Z,99280.19
2018-11-06T17:41:41.563Z,99263.95
2018-11-06T17:44:10.541Z,99261.01
2018-11-06T17:46:39.490Z,99261.84
2018-11-06T17:49:08.493Z,99269.63
2018-11-06T17:51:37.473Z,99266.59
2018-11-06T17:54:06.587Z,99264.25
2018-11-06T17:56:35.573Z,99281.66
2018-11-06T17:59:04.948Z,99288.62
2018-11-06T18:01:33.902Z,99286.17
2018-11-06T18:04:02.927Z,99292.18
2018-11-06T18:06:31.835Z,99280.72
2018-11-06T18:09:01.108Z,99284.95
2018-11-06T18:11:30.045Z,99299.45
2018-11-06T18:13:59.026Z,99295.69
2018-11-06T18:16:27.978Z,99300.66
2018-11-06T18:18:56.973Z,99303.48
2018-11-06T18:21:26.011Z,99296.27
2018-11-06T18:23:55.031Z,99299.52
2018-11-06T18:26:24.031Z,99309.52
2018-11-06T18:28:53.097Z,99299.31
2018-11-06T18:31:22.262Z,99302.70
2018-11-06T18:33:51.318Z,99310.85
2018-11-06T18:36:20.266Z,99319.91
2018-11-06T18:38:49.245Z,99330.55
2018-11-06T18:41:18.228Z,99328.59
2018-11-06T18:43:47.363Z,99331.73
2018-11-06T18:46:16.378Z,99340.82
2018-11-06T18:48:45.648Z,99343.58
2018-11-06T18:51:14.706Z,99346.06
2018-11-06T18:53:43.729Z,99341.78
2018-11-06T18:56:12.726Z,99342.64
2018-11-06T18:58:41.770Z,99345.81
2018-11-06T19:01:10.779Z,99352.09
2018-11-06T19:03:45.081Z,99345.13
2018-11-06T19:06:14.050Z,99353.38
2018-11-06T19:08:43.039Z,99351.28
2018-11-06T19:11:12.225Z,99350.34
2018-11-06T19:13:41.321Z,99355.88
2018-11-06T19:16:10.262Z,99363.34
2018-11-06T19:18:39.273Z,99364.05
2018-11-06T19:21:08.358Z,99368.65
2018-11-06T19:23:37.559Z,99372.91
2018-11-06T19:26:06.523Z,99360.38
2018-11-06T19:28:35.516Z,99358.84
2018-11-06T19:31:04.571Z,99357.20
2018-11-06T19:33:33.550Z,99358.75
2018-11-06T19:36:02.510Z,99360.98
2018-11-06T19:38:31.614Z,99360.41
2018-11-06T19:41:00.579Z,99358.51
2018-11-06T19:43:29.597Z,99364.05
2018-11-06T19:45:58.565Z,99369.98
2018-11-06T19:48:27.592Z,99372.20
2018-11-06T19:50:56.553Z,99371.14
2018-11-06T19:53:25.613Z,99375.03
2018-11-06T19:55:54.511Z,99382.45
2018-11-06T19:58:23.499Z,99386.23
2018-11-06T20:00:52.507Z,99383.98
2018-11-06T20:03:21.496Z,99383.02
2018-11-06T20:05:50.516Z,99383.86
2018-11-06T20:08:19.423Z,99386.58
2018-11-06T20:10:48.548Z,99387.15
2018-11-06T20:13:17.662Z,99383.63
2018-11-06T20:15:46.667Z,99385.02
2018-11-06T20:18:15.629Z,99383.73
2018-11-06T20:20:44.733Z,99389.75
2018-11-06T20:23:13.726Z,99380.80
2018-11-06T20:25:42.689Z,99381.73
2018-11-06T20:28:11.686Z,99383.86
2018-11-06T20:30:40.737Z,99368.67
2018-11-06T20:33:09.816Z,99378.78
2018-11-06T20:35:38.816Z,99372.66
2018-11-06T20:38:07.791Z,99382.44
2018-11-06T20:40:36.718Z,99381.70
2018-11-06T20:43:05.861Z,99370.88
2018-11-06T20:45:35.211Z,99376.29
2018-11-06T20:48:04.199Z,99377.72
2018-11-06T20:50:33.162Z,99364.39
2018-11-06T20:53:02.216Z,99381.70
2018-11-06T20:55:31.143Z,99381.34
2018-11-06T20:58:00.091Z,99385.66
2018-11-06T21:00:29.977Z,99390.02
2018-11-06T21:03:01.239Z,99388.35
2018-11-06T21:05:30.222Z,99385.98
2018-11-06T21:07:59.233Z,99388.48
2018-11-06T21:10:30.658Z,99382.93
2018-11-06T21:12:59.811Z,99379.23
2018-11-06T21:15:28.740Z,99371.82
2018-11-06T21:17:57.819Z,99378.16
2018-11-06T21:20:26.837Z,99377.92
2018-11-06T21:22:55.721Z,99381.91
2018-11-06T21:25:24.842Z,99383.56
2018-11-06T21:27:53.690Z,99381.68
2018-11-06T21:30:22.685Z,99385.45
2018-11-06T21:32:52.761Z,99388.61
2018-11-06T21:35:21.827Z,99389.56
2018-11-06T21:37:50.921Z,99388.27
2018-11-06T21:40:20.937Z,99386.84
2018-11-06T21:42:50.585Z,99393.69
2018-11-06T21:45:19.688Z,99403.92
2018-11-06T21:47:49.433Z,99397.45
2018-11-06T21:50:18.781Z,99384.85
2018-11-06T21:52:48.051Z,99388.13
2018-11-06T21:55:18.362Z,99385.54
2018-11-06T21:57:47.370Z,99391.51
2018-11-06T22:00:17.684Z,99384.80
2018-11-06T22:02:46.609Z,99385.48
2018-11-06T22:05:16.927Z,99392.69
2018-11-06T22:07:46.141Z,99402.45
2018-11-06T22:10:16.458Z,99405.83
2018-11-06T22:12:45.891Z,99406.64
2018-11-06T22:15:15.980Z,99412.41
2018-11-06T22:17:44.950Z,99418.16
2018-11-06T22:20:15.137Z,99427.80
2018-11-06T22:22:44.753Z,99427.21
2018-11-06T22:25:13.749Z,99435.34
2018-11-06T22:27:43.110Z,99438.63
2018-11-06T22:30:13.100Z,99437.55
2018-11-06T22:32:42.838Z,99445.78
2018-11-06T22:35:13.006Z,99439.77
2018-11-06T22:37:42.101Z,99446.80
2018-11-06T22:40:12.490Z,99451.07
2018-11-06T22:42:41.545Z,99451.07
2018-11-06T22:45:12.439Z,99453.33
2018-11-06T22:47:41.700Z,99457.67
2018-11-06T22:50:12.358Z,99458.50
2018-11-06T22:52:41.517Z,99456.77
2018-11-06T22:55:10.503Z,99449.77
2018-11-06T22:57:39.552Z,99449.39
2018-11-06T23:00:12.547Z,99443.95
2018-11-06T23:02:41.846Z,99438.63
2018-11-06T23:05:10.811Z,99441.22
2018-11-06T23:07:45.022Z,99437.97
2018-11-06T23:10:14.007Z,99433.23
2018-11-06T23:12:43.234Z,99428.14
2018-11-06T23:15:13.211Z,99426.02
2018-11-06T23:17:42.223Z,99428.73
2018-11-06T23:20:11.177Z,99433.07
2018-11-06T23:22:40.238Z,99424.47
2018-11-06T23:25:09.296Z,99421.88
2018-11-06T23:27:38.194Z,99418.59
2018-11-06T23:30:09.438Z,99420.79
2018-11-06T23:32:38.416Z,99420.07
2018-11-06T23:35:07.422Z,99408.87
2018-11-06T23:37:36.483Z,99410.38
2018-11-06T23:40:05.934Z,99409.53
2018-11-06T23:42:34.886Z,99410.46
2018-11-06T23:45:04.351Z,99408.00
2018-11-06T23:47:33.481Z,99414.93
2018-11-06T23:50:03.153Z,99420.55
2018-11-06T23:52:32.120Z,99427.48
2018-11-06T23:55:01.105Z,99431.68
2018-11-06T23:57:30.461Z,99427.39
